This is the latest recevied weather packets stored in our database for station/object OK2ZAW-23. If no packets are shown the sender has not sent any weather packets the latest 10 day(s).
| Time | Temp. | Humidity | Pressure | Rain* | Wind** | Luminosity | Snow |
|---|---|---|---|---|---|---|---|
| 1777576915 | 7.78° C | 41% | 1025.5 hPa | - | - | 335 W/m² | - |
| 1777575975 | 8.33° C | 43% | 1025.3 hPa | - | - | 335 W/m² | - |
| 1777575349 | 8.89° C | 38% | 1025.1 hPa | - | - | 335 W/m² | - |
| 1777575036 | 8.89° C | 39% | 1025.1 hPa | - | - | 335 W/m² | - |
| 1777574722 | 9.44° C | 37% | 1025.1 hPa | - | - | 335 W/m² | - |
| 1777574410 | 10° C | 32% | 1025.1 hPa | - | - | 335 W/m² | - |
| 1777574096 | 10° C | 33% | 1025.1 hPa | - | - | 335 W/m² | - |
| 1777573469 | 11.11° C | 30% | 1025 hPa | - | - | 335 W/m² | - |
| 1777572843 | 12.22° C | 30% | 1024.9 hPa | - | - | 335 W/m² | - |
| 1777572530 | 12.78° C | 29% | 1024.8 hPa | - | - | 335 W/m² | - |
| 1777572216 | 13.33° C | 29% | 1024.8 hPa | - | - | 335 W/m² | - |
| 1777571902 | 13.89° C | 29% | 1024.8 hPa | - | - | 335 W/m² | - |
| 1777571274 | 15.56° C | 27% | 1024.5 hPa | - | - | 336 W/m² | - |
| 1777570647 | 16.11° C | 26% | 1024.5 hPa | - | - | 336 W/m² | - |
| 1777570333 | 17.22° C | 25% | 1024.4 hPa | - | - | 335 W/m² | - |
| 1777570019 | 17.22° C | 24% | 1024.5 hPa | - | - | 336 W/m² | - |
| 1777568763 | 18.33° C | 23% | 1024.5 hPa | - | - | 335 W/m² | - |
| 1777567821 | 20° C | 20% | 1024.4 hPa | - | - | 335 W/m² | - |
| 1777567507 | 20° C | 20% | 1024.3 hPa | - | - | 336 W/m² | - |
| 1777566880 | 20° C | 20% | 1024.4 hPa | - | - | 336 W/m² | - |
| 1777566565 | 20.56° C | 20% | 1024.4 hPa | - | - | 336 W/m² | - |
| 1777566251 | 20° C | 19% | 1024.4 hPa | - | - | 336 W/m² | - |
| 1777565622 | 20.56° C | 19% | 1024.5 hPa | - | - | 336 W/m² | - |
| 1777565308 | 20.56° C | 20% | 1024.5 hPa | - | - | 335 W/m² | - |
| 1777564680 | 18.89° C | 20% | 1024.6 hPa | - | - | 335 W/m² | - |
* Rain since midnight (hover to see other rain measurements)
** Current wind speed in m/s (hover to see current wind gust speed)